ADDS METAR Data INFO
IDs: Format: Raw Decoded Include TAF

Data at: 1413 UTC 12 Dec 2017

KIND 121354Z 31014G22KT 10SM FEW035 M04/M11 A3002 RMK AO2 PK WND 31032/1321 SLP173 T10441111
KIND 121254Z 31015G26KT 10SM FEW037 M04/M11 A3000 RMK AO2 PK WND 32032/1207 SLP163 T10441106
KIND 121154Z 32014KT 10SM FEW025 BKN046 M02/M08 A2996 RMK AO2 PK WND 33034/1134 SNB34E45 SLP149 P0000 60000 I6001 T10221078 10017 21022 53020
KIND 121054Z 32017G27KT 10SM FEW030 OVC038 M01/M06 A2992 RMK AO2 PK WND 32027/1052 SLP138 T10111061
KIND 121014Z 30015G20KT 10SM FEW011 SCT021 OVC038 M01/M04 A2991 RMK AO2 T10111039
KIND 120954Z 31017KT 7SM BKN010 BKN018 OVC023 M01/M03 A2991 RMK AO2 PK WND 30029/0929 RAB06E20FZDZB20E44SNB06E20 SLP133 P0000 I1001 T10111028
KIND 120945Z 32014G26KT 5SM BR SCT009 BKN014 OVC023 M01/M03 A2991 RMK AO2 PK WND 30029/0929 RAB06E20FZDZB20E44SNB06E20 P0000 I1000 T10111028
KIND 120943Z 32018G26KT 6SM -FZDZ BR BKN009 BKN014 OVC020 M01/M03 A2991 RMK AO2 PK WND 30029/0929 RAB06E20FZDZB20SNB06E20 P0000 I1000 T10111028
KIND 120920Z 30015KT 3SM -FZDZ BR BKN010 OVC014 M01/M02 A2990 RMK AO2 RAB06E20FZDZB20SNB06E20 P0000 I1000 T10061017
KIND 120854Z 31014G22KT 3SM BR BKN010 OVC016 M01/M02 A2990 RMK AO2 PK WND 31026/0812 SLP129 RAB19E40SNB19E48 P0000 60000 T10061017 51021
KIND 120754Z 31016KT 7SM OVC013 01/M02 A2988 RMK AO2 PK WND 30027/0708 SLP122 T00061022
KIND 120654Z 31013G28KT 8SM OVC010 01/M02 A2986 RMK AO2 PK WND 31028/0648 SLP115 T00111022
KIND 120618Z 30014KT 9SM OVC014 02/M02 A2984 RMK AO2 T00171017
KIND 120554Z 31021G26KT 10SM OVC017 02/M02 A2983 RMK AO2 PK WND 30026/0549 SLP107 T00171022 10072 20017 52035
KIND 120512Z 29016G22KT 10SM BKN017 BKN023 OVC060 02/M02 A2981 RMK AO2 T00221022
KIND 120454Z 31016G22KT 10SM SCT017 BKN060 OVC075 02/M03 A2980 RMK AO2 PK WND 32026/0434 SLP096 T00221028 400781056
KIND 120354Z 29021G28KT 10SM SCT055 BKN200 03/M03 A2976 RMK AO2 PK WND 29028/0348 SLP083 T00331028
KIND 120254Z 26016G23KT 10SM BKN045 OVC050 05/M03 A2973 RMK AO2 PK WND 27032/0157 SLP072 T00501028 51016
KIND 120154Z 27014KT 10SM BKN048 BKN140 06/M03 A2971 RMK AO2 PK WND 26028/0119 SLP067 T00561033
KIND 120054Z 26016G25KT 10SM FEW130 BKN230 06/M04 A2970 RMK AO2 PK WND 25027/0016 SLP062 T00611039
KIND 112354Z 25012KT 10SM BKN130 BKN230 07/M02 A2968 RMK AO2 SLP056 T00721017 10078 20044 55005
KIND 112254Z 16007KT 10SM BKN170 BKN230 06/M02 A2966 RMK AO2 SLP051 T00611022
KIND 112154Z 15007KT 10SM BKN130 BKN230 08/M02 A2967 RMK AO2 SLP054 T00781022
KIND 112054Z 16008KT 10SM BKN160 BKN230 07/M02 A2970 RMK AO2 SLP061 T00721022 56048
KIND 111954Z 14009KT 10SM SCT150 BKN230 07/M03 A2971 RMK AO2 SLP067 T00671028
KIND 111854Z 18014KT 10SM FEW110 SCT130 BKN160 07/M03 A2977 RMK AO2 PRESFR SLP085 T00671028
KIND 111754Z 18009KT 10SM FEW110 SCT170 BKN220 05/M03 A2984 RMK AO2 SLP112 T00501033 10050 21033 58052
KIND 111654Z 19012KT 10SM BKN110 BKN140 02/M04 A2990 RMK AO2 SLP132 T00221039
KIND 111554Z 20011KT 10SM FEW055 SCT140 BKN180 BKN250 02/M04 A2998 RMK AO2 SLP159 T00171044
KIND 111454Z 19007KT 10SM FEW055 SCT140 BKN190 M01/M05 A3000 RMK AO2 SLP167 T10111050 58023
KIND 111354Z 19004KT 9SM FEW060 BKN140 BKN170 M02/M05 A3004 RMK AO2 SLP180 T10221050
KIND 111254Z 18006KT 10SM FEW100 BKN130 OVC150 M03/M06 A3004 RMK AO2 SLP183 T10281056
KIND 111154Z 20004KT 10SM BKN100 OVC130 M03/M06 A3007 RMK AO2 SLP191 T10331056 11033 21056 55004
KIND 111054Z 18004KT 10SM SCT090 BKN130 M04/M07 A3006 RMK AO2 SLP189 T10441067
KIND 110954Z 19005KT 10SM CLR M06/M08 A3008 RMK AO2 SLP193 T10561078
KIND 110854Z 26003KT 10SM CLR M05/M07 A3008 RMK AO2 SLP194 T10501072 56004
KIND 110754Z 25004KT 10SM CLR M04/M07 A3009 RMK AO2 SLP196 T10441072
KIND 110654Z 29003KT 10SM CLR M04/M07 A3009 RMK AO2 SLP197 T10391067
KIND 110554Z 29005KT 10SM CLR M04/M07 A3009 RMK AO2 SLP199 T10391067 11006 21039 51011
KIND 110454Z 29006KT 10SM CLR M03/M06 A3009 RMK AO2 SLP198 T10281061 400331072
KIND 110354Z 30008KT 10SM CLR M02/M06 A3008 RMK AO2 SLP196 T10171061
KIND 110254Z 30008KT 10SM SCT250 M01/M06 A3006 RMK AO2 SLP189 T10111056 53020